Airfield :
LOGIN :

Register | Disclaimer

   EN    FR    IT 

 










Legend :    VFR   Marginal VFR   IFR   Intensive IFR   Very Intensive IFR
Visi :
Ceiling :
>= 8 km
>= 3000ft
5 to 8 km
1000 to 3000 ft
1500m to 5 km
500 to 1000 ft
800 to 1500m
200 to 500 ft
< 800m
< 200 ft
Symbols :   Thunderstorms  Fog  Heavy snow  Heavy precipitations  Wind > 20 kt
SIGMETs :     Misc.  Thunderstorms  Icing  Turbulence  Mountain Waves  Volcanic Ashes







- Airport Elevation : 46 ft
- IATA code : SNN


EINN - Shannon

CURRENT METAR :
  • 300030Z 16007KT 9999 FEW021 BKN048 12/09 Q1009 NOSIG

EXPIRED METARs :
  • 300000Z 16016KT 9999 SCT045 BKN110 12/09 Q1008 NOSIG
  • 292330Z 17018KT 9999 FEW045 12/09 Q1008 NOSIG
  • 292300Z 16016KT 9999 FEW020 BKN120 12/10 Q1008 NOSIG
  • 292230Z 15012KT 9999 FEW020 12/10 Q1008 NOSIG
  • 292200Z 15013KT 9999 -SHRA FEW021 SCT150 12/10 Q1008 NOSIG

TAF TAF EINN
Valid from the 30 at 00:00 until the 31 at 00:00 UTC


292300Z 3000/3024 16013KT 9999 FEW015 SCT040
TEMPO 3000/3012 BKN012
TEMPO 3012/3018 16015G25KT -SHRA BKN012 SCT018CB
TEMPO 3018/3024 BKN012
No reported NOTAMs for that airfield.



MET'MAP, your aeronautical weather chart ! - Copyright ORBIFLY December 2007 - Disclaimer

ORBIFLY MET'MAP TEAM :

Programming & Development : Alexandra Zaïnal
Concept & Development : Baudouin d'Aumeries
Co-Development & Prog : Marc-Olivier Méhu
Technical & hardware support : Manuel Goepfert

Contact : metmap@orbifly.com




SOURCES & CREDITS :

   NOAA